Time;durP1;ratioP1;P1;durP2;ratioP2;P2;SDS_P1;SDS_P2;PMS_P1;PMS_P2;Temp;Humidity;BMP_temperature;BMP_pressure;BME280_temperature;BME280_humidity;BME280_pressure;Samples;Min_cycle;Max_cycle;Signal;HPM_P1;HPM_P2
2024/01/19 00:01:32;;;;;;;3.75;1.52;;;;;;;-1.22;100.00;101027.66;5007473;28;20052;-78
2024/01/19 00:03:59;;;;;;;4.30;1.10;;;;;;;-1.23;100.00;101029.38;5026211;28;20057;-78
2024/01/19 00:06:27;;;;;;;8.00;2.03;;;;;;;-1.25;100.00;101028.41;5007543;28;20053;-78
2024/01/19 00:08:55;;;;;;;8.43;1.50;;;;;;;-1.26;100.00;101025.72;4984486;28;20438;-78
2024/01/19 00:11:22;;;;;;;8.20;1.80;;;;;;;-1.28;100.00;101023.06;4974420;28;20056;-78
2024/01/19 00:13:50;;;;;;;3.47;1.40;;;;;;;-1.32;100.00;101021.13;5027797;28;20041;-78
2024/01/19 00:16:18;;;;;;;5.20;1.58;;;;;;;-1.35;100.00;101018.34;5007708;28;20032;-78
2024/01/19 00:18:46;;;;;;;3.88;1.33;;;;;;;-1.38;100.00;101021.69;5009560;28;20049;-77
2024/01/19 00:21:14;;;;;;;10.93;1.73;;;;;;;-1.39;100.00;101011.25;5007779;28;20053;-78
2024/01/19 00:23:41;;;;;;;7.28;1.25;;;;;;;-1.39;100.00;101013.84;5018261;28;20042;-78
2024/01/19 00:26:10;;;;;;;3.78;1.38;;;;;;;-1.43;100.00;101007.59;4957337;28;20037;-80
2024/01/19 00:28:37;;;;;;;3.25;1.50;;;;;;;-1.41;100.00;101010.28;5008427;28;20049;-77
2024/01/19 00:31:05;;;;;;;6.40;1.50;;;;;;;-1.44;100.00;101005.81;5008889;28;20053;-78
2024/01/19 00:33:32;;;;;;;3.22;1.40;;;;;;;-1.45;100.00;101016.97;4991356;28;20731;-78
2024/01/19 00:36:00;;;;;;;3.40;1.15;;;;;;;-1.47;100.00;101025.47;5009160;28;20046;-78
2024/01/19 00:38:28;;;;;;;7.65;1.70;;;;;;;-1.50;100.00;101020.13;5022572;28;20550;-78
2024/01/19 00:40:55;;;;;;;4.05;1.30;;;;;;;-1.51;100.00;101021.81;5018278;28;20046;-78
2024/01/19 00:43:23;;;;;;;3.63;1.20;;;;;;;-1.52;100.00;101021.72;4969154;28;20064;-78
2024/01/19 00:45:50;;;;;;;2.38;1.10;;;;;;;-1.51;100.00;101023.50;5026899;28;20037;-78
2024/01/19 00:48:17;;;;;;;3.92;1.50;;;;;;;-1.52;100.00;101026.91;5007196;28;20050;-78
2024/01/19 00:50:45;;;;;;;1.67;1.38;;;;;;;-1.51;100.00;101028.66;5009277;28;20049;-78
2024/01/19 00:53:12;;;;;;;3.25;1.27;;;;;;;-1.46;100.00;101047.91;5014606;28;20062;-78
2024/01/19 00:55:40;;;;;;;4.85;1.10;;;;;;;-1.43;100.00;101053.25;4982964;28;20155;-78
2024/01/19 00:58:07;;;;;;;3.30;1.30;;;;;;;-1.37;100.00;101058.75;4961162;28;20061;-78
2024/01/19 01:00:34;;;;;;;2.17;1.20;;;;;;;-1.30;100.00;101072.91;4987107;28;20084;-78
2024/01/19 01:03:03;;;;;;;3.00;1.17;;;;;;;-1.22;100.00;101069.03;5010259;28;20042;-78
2024/01/19 01:05:30;;;;;;;5.97;1.23;;;;;;;-1.15;100.00;101065.97;5006523;28;20570;-78
2024/01/19 01:07:58;;;;;;;2.05;0.93;;;;;;;-1.07;100.00;101066.41;5009602;28;20045;-78
2024/01/19 01:10:25;;;;;;;3.92;1.30;;;;;;;-1.00;100.00;101065.91;4996495;28;22440;-78
2024/01/19 01:12:53;;;;;;;4.10;1.15;;;;;;;-0.98;100.00;101048.78;4996819;28;20537;-77
2024/01/19 01:15:20;;;;;;;0.93;0.90;;;;;;;-0.97;100.00;101050.53;4988182;28;20052;-78
2024/01/19 01:17:47;;;;;;;4.20;1.27;;;;;;;-0.98;100.00;101048.78;5009044;28;20041;-77
2024/01/19 01:20:15;;;;;;;2.88;1.00;;;;;;;-1.02;100.00;101047.72;4990734;28;20494;-77
2024/01/19 01:22:43;;;;;;;6.22;1.10;;;;;;;-1.02;100.00;101057.16;5007987;28;20049;-78
2024/01/19 01:25:10;;;;;;;2.65;0.90;;;;;;;-1.02;100.00;101050.31;4991585;28;20052;-77
2024/01/19 01:27:38;;;;;;;5.15;1.20;;;;;;;-1.03;100.00;101050.22;5016714;28;20045;-78
2024/01/19 01:30:07;;;;;;;6.72;1.25;;;;;;;-1.04;100.00;101046.75;4970643;28;20044;-78
2024/01/19 01:32:35;;;;;;;4.37;1.30;;;;;;;-1.06;100.00;101044.88;5005593;28;20045;-78
2024/01/19 01:35:03;;;;;;;2.63;1.00;;;;;;;-1.08;100.00;101051.66;5026047;28;20060;-78
2024/01/19 01:37:30;;;;;;;5.38;1.30;;;;;;;-1.10;100.00;101045.53;5023124;28;20041;-78
2024/01/19 01:39:58;;;;;;;2.75;1.20;;;;;;;-1.11;100.00;101047.22;4993285;28;20042;-78
2024/01/19 01:42:25;;;;;;;4.53;1.00;;;;;;;-1.13;100.00;101051.44;4996332;28;20057;-78
2024/01/19 01:44:53;;;;;;;4.10;1.17;;;;;;;-1.12;100.00;101057.50;4984686;28;20418;-78
2024/01/19 01:47:21;;;;;;;2.90;1.42;;;;;;;-1.12;100.00;101060.06;4967467;28;20046;-78
2024/01/19 01:49:48;;;;;;;3.35;1.23;;;;;;;-1.15;100.00;101070.25;5008931;28;20446;-78
2024/01/19 01:52:16;;;;;;;4.07;1.15;;;;;;;-1.16;100.00;101065.91;4990586;28;20060;-79
2024/01/19 01:54:44;;;;;;;2.60;0.90;;;;;;;-1.18;100.00;101077.03;5008376;28;20052;-78
2024/01/19 01:57:13;;;;;;;4.22;1.13;;;;;;;-1.16;100.00;101087.47;5023784;28;20048;-78
2024/01/19 01:59:42;;;;;;;2.00;1.10;;;;;;;-1.15;100.00;101098.69;5007616;28;20410;-78
2024/01/19 02:02:14;;;;;;;3.33;0.98;;;;;;;-1.12;100.00;101119.56;4973282;28;20061;-78
2024/01/19 02:04:41;;;;;;;3.55;0.90;;;;;;;-1.10;100.00;101143.81;5010990;28;20053;-78
2024/01/19 02:07:09;;;;;;;9.00;1.10;;;;;;;-1.06;100.00;101145.75;4981157;28;20046;-78
2024/01/19 02:09:37;;;;;;;1.60;1.25;;;;;;;-1.00;100.00;101141.81;4983871;28;20495;-78
2024/01/19 02:12:05;;;;;;;5.57;1.20;;;;;;;-0.90;100.00;101169.06;5016431;28;20065;-79
2024/01/19 02:14:33;;;;;;;8.90;1.73;;;;;;;-0.83;100.00;101172.91;4979992;28;20654;-78
2024/01/19 02:17:01;;;;;;;5.00;0.85;;;;;;;-0.79;100.00;101178.31;4967894;28;20071;-80
2024/01/19 02:19:28;;;;;;;3.85;1.00;;;;;;;-0.75;100.00;101174.19;4992229;28;20045;-80
2024/01/19 02:21:56;;;;;;;5.18;0.98;;;;;;;-0.74;100.00;101173.38;4993071;28;20061;-80
2024/01/19 02:24:23;;;;;;;3.25;1.20;;;;;;;-0.73;100.00;101158.75;5011751;28;20495;-80
2024/01/19 02:26:51;;;;;;;1.50;1.00;;;;;;;-0.74;100.00;101162.13;4976929;28;20681;-80
2024/01/19 02:29:20;;;;;;;4.68;1.00;;;;;;;-0.74;100.00;101147.50;5006070;28;20050;-80
2024/01/19 02:31:47;;;;;;;3.85;1.23;;;;;;;-0.74;100.00;101134.56;4975629;28;20378;-80
2024/01/19 02:34:15;;;;;;;7.00;1.42;;;;;;;-0.74;100.00;101124.19;5012784;28;20042;-80
2024/01/19 02:36:42;;;;;;;6.97;0.95;;;;;;;-0.74;100.00;101131.09;4988550;28;20817;-80
2024/01/19 02:39:10;;;;;;;2.75;1.17;;;;;;;-0.75;100.00;101140.56;5001059;28;20057;-80
2024/01/19 02:41:38;;;;;;;4.90;1.20;;;;;;;-0.80;100.00;101137.69;5003548;28;20495;-81
2024/01/19 02:44:05;;;;;;;4.25;1.20;;;;;;;-0.84;100.00;101145.22;4987118;28;20045;-80
2024/01/19 02:46:33;;;;;;;5.97;1.50;;;;;;;-0.91;100.00;101141.41;4976344;28;20138;-81
2024/01/19 02:49:00;;;;;;;4.97;1.30;;;;;;;-1.00;100.00;101157.34;4984749;28;20049;-80
2024/01/19 02:51:28;;;;;;;5.85;1.77;;;;;;;-1.10;100.00;101149.88;4991807;28;20046;-81
2024/01/19 02:53:55;;;;;;;8.63;1.55;;;;;;;-1.18;100.00;101158.91;4992401;28;20049;-80
2024/01/19 02:56:23;;;;;;;6.40;1.27;;;;;;;-1.26;100.00;101160.19;4976938;28;20057;-81
2024/01/19 02:58:50;;;;;;;5.00;1.40;;;;;;;-1.35;100.00;101160.56;5002542;28;20954;-80
2024/01/19 03:01:18;;;;;;;2.33;1.40;;;;;;;-1.41;100.00;101166.25;4993566;28;20057;-80
2024/01/19 03:03:45;;;;;;;6.72;1.67;;;;;;;-1.48;100.00;101171.00;4965369;28;20076;-80
2024/01/19 03:06:13;;;;;;;2.67;1.42;;;;;;;-1.53;100.00;101167.25;5005492;28;20072;-80
2024/01/19 03:08:40;;;;;;;8.90;1.98;;;;;;;-1.59;100.00;101173.88;5010336;28;20041;-81
2024/01/19 03:11:09;;;;;;;4.25;1.30;;;;;;;-1.63;100.00;101171.00;5013421;28;20041;-80
2024/01/19 03:13:37;;;;;;;4.97;1.50;;;;;;;-1.67;100.00;101180.28;4990041;28;20049;-81
2024/01/19 03:16:06;;;;;;;2.78;1.50;;;;;;;-1.72;100.00;101175.66;5005675;28;20058;-80
2024/01/19 03:18:33;;;;;;;4.80;1.52;;;;;;;-1.76;100.00;101184.91;4993866;28;20052;-80
2024/01/19 03:21:01;;;;;;;7.72;2.15;;;;;;;-1.81;100.00;101182.06;5011149;28;20410;-80
2024/01/19 03:23:28;;;;;;;7.53;1.77;;;;;;;-1.83;100.00;101178.50;5011193;28;20061;-80
2024/01/19 03:25:55;;;;;;;3.75;1.50;;;;;;;-1.87;100.00;101188.56;4983273;28;20053;-80
2024/01/19 03:28:23;;;;;;;2.80;1.55;;;;;;;-1.91;100.00;101190.09;5010779;28;20045;-80
2024/01/19 03:30:51;;;;;;;7.45;1.67;;;;;;;-1.93;100.00;101188.22;5003416;28;20065;-80
2024/01/19 03:33:18;;;;;;;7.72;1.85;;;;;;;-1.94;100.00;101189.91;5009962;28;20056;-81
2024/01/19 03:35:46;;;;;;;10.05;2.10;;;;;;;-1.94;100.00;101189.03;4985544;28;20041;-80
2024/01/19 03:38:14;;;;;;;4.70;1.88;;;;;;;-1.90;100.00;101196.16;5011744;28;20060;-80
2024/01/19 03:40:41;;;;;;;9.68;1.98;;;;;;;-1.87;100.00;101192.06;5004685;28;20060;-80
2024/01/19 03:43:08;;;;;;;4.28;1.85;;;;;;;-1.84;100.00;101194.78;5012298;28;20041;-82
2024/01/19 03:45:36;;;;;;;8.77;2.53;;;;;;;-1.79;100.00;101203.72;5001602;28;20053;-80
2024/01/19 03:48:04;;;;;;;5.03;2.00;;;;;;;-1.75;100.00;101222.88;5030111;28;20041;-80
2024/01/19 03:50:31;;;;;;;5.03;2.50;;;;;;;-1.72;100.00;101222.16;4965772;28;20049;-81
2024/01/19 03:52:58;;;;;;;4.47;1.88;;;;;;;-1.69;100.00;101222.34;5011242;28;20048;-80
2024/01/19 03:55:26;;;;;;;5.85;2.17;;;;;;;-1.66;100.00;101220.84;5011206;28;20045;-81
2024/01/19 03:57:53;;;;;;;7.82;1.67;;;;;;;-1.66;100.00;101227.72;5010848;28;20307;-80
2024/01/19 04:00:21;;;;;;;6.10;1.90;;;;;;;-1.68;100.00;101234.44;5005355;28;20057;-80
2024/01/19 04:02:48;;;;;;;10.27;1.95;;;;;;;-1.68;100.00;101230.19;4994506;28;20064;-80
2024/01/19 04:05:16;;;;;;;6.32;1.85;;;;;;;-1.72;100.00;101232.50;4982474;28;20046;-80
2024/01/19 04:07:44;;;;;;;15.45;2.60;;;;;;;-1.81;100.00;101232.88;5008846;28;20045;-80
2024/01/19 04:10:11;;;;;;;5.53;2.28;;;;;;;-1.87;100.00;101238.56;5011338;28;20046;-80
2024/01/19 04:12:39;;;;;;;9.25;2.10;;;;;;;-1.91;100.00;101239.19;5007867;28;20053;-81
2024/01/19 04:15:06;;;;;;;7.18;3.03;;;;;;;-1.94;100.00;101240.69;5003286;28;20053;-80
2024/01/19 04:17:34;;;;;;;9.60;2.10;;;;;;;-1.98;100.00;101245.66;5010374;28;20388;-80
2024/01/19 04:20:02;;;;;;;8.32;2.10;;;;;;;-2.00;100.00;101256.69;5011446;28;20116;-80
2024/01/19 04:22:29;;;;;;;4.57;2.30;;;;;;;-2.03;100.00;101244.47;4965161;28;20060;-80
2024/01/19 04:24:56;;;;;;;14.10;2.20;;;;;;;-2.05;100.00;101246.06;5022998;28;20061;-80
2024/01/19 04:27:24;;;;;;;7.68;1.70;;;;;;;-2.04;100.00;101258.22;5028013;28;20033;-81
2024/01/19 04:29:51;;;;;;;7.43;2.13;;;;;;;-2.03;100.00;101253.91;5011427;28;20128;-80
2024/01/19 04:32:18;;;;;;;11.63;1.92;;;;;;;-2.05;100.00;101256.41;5005348;28;20053;-80
2024/01/19 04:34:46;;;;;;;11.35;2.00;;;;;;;-2.06;100.00;101249.47;4995446;28;20426;-81
2024/01/19 04:37:14;;;;;;;10.68;1.90;;;;;;;-2.07;100.00;101250.25;4984769;28;20049;-80
2024/01/19 04:39:41;;;;;;;8.80;1.80;;;;;;;-2.06;100.00;101256.31;5019358;28;20046;-81
2024/01/19 04:42:09;;;;;;;8.23;2.45;;;;;;;-2.06;100.00;101259.81;5001877;28;20419;-81
2024/01/19 04:44:36;;;;;;;12.77;2.17;;;;;;;-2.04;100.00;101272.78;5029198;28;20042;-80
2024/01/19 04:47:04;;;;;;;12.15;2.83;;;;;;;-2.00;100.00;101275.66;4983727;28;20050;-81
2024/01/19 04:49:31;;;;;;;5.45;1.60;;;;;;;-1.96;100.00;101272.47;5011986;28;20053;-80
2024/01/19 04:51:59;;;;;;;8.10;1.92;;;;;;;-1.91;100.00;101277.00;4996027;28;20045;-80
2024/01/19 04:54:26;;;;;;;8.95;1.98;;;;;;;-1.87;100.00;101282.47;5026317;28;20052;-80
2024/01/19 04:56:54;;;;;;;9.38;2.25;;;;;;;-1.83;100.00;101289.59;4988846;28;20510;-80
2024/01/19 04:59:21;;;;;;;7.72;1.92;;;;;;;-1.77;100.00;101302.00;5010178;28;20033;-80
2024/01/19 05:01:49;;;;;;;9.65;2.10;;;;;;;-1.73;100.00;101300.50;5015383;28;20045;-80
2024/01/19 05:04:16;;;;;;;8.63;1.85;;;;;;;-1.69;100.00;101287.84;4995491;28;20054;-80
2024/01/19 05:06:44;;;;;;;12.05;2.28;;;;;;;-1.65;100.00;101289.78;5005120;28;20064;-80
2024/01/19 05:09:11;;;;;;;8.63;2.10;;;;;;;-1.63;100.00;101285.59;4998705;28;20465;-80
2024/01/19 05:11:39;;;;;;;10.23;1.95;;;;;;;-1.63;100.00;101280.44;5011023;28;20045;-80
2024/01/19 05:14:06;;;;;;;8.40;1.95;;;;;;;-1.63;100.00;101300.22;4985519;28;20061;-80
2024/01/19 05:16:34;;;;;;;10.55;2.40;;;;;;;-1.64;100.00;101303.63;4994763;28;20054;-80
2024/01/19 05:19:04;;;;;;;12.50;3.78;;;;;;;-1.68;100.00;101307.72;5015309;28;20041;-80
2024/01/19 05:21:34;;;;;;;10.73;2.03;;;;;;;-1.72;100.00;101310.94;4999811;28;20501;-80
2024/01/19 05:24:01;;;;;;;10.55;2.00;;;;;;;-1.76;100.00;101314.09;4989798;28;20045;-80
2024/01/19 05:26:29;;;;;;;13.40;2.50;;;;;;;-1.82;100.00;101322.38;5010000;28;20049;-79
2024/01/19 05:28:57;;;;;;;10.20;2.60;;;;;;;-1.86;100.00;101335.03;5016299;28;20056;-80
2024/01/19 05:31:24;;;;;;;9.55;2.13;;;;;;;-1.92;100.00;101329.50;4991958;28;20061;-80
2024/01/19 05:33:52;;;;;;;9.20;1.90;;;;;;;-1.96;100.00;101336.16;5001284;28;20061;-80
2024/01/19 05:36:20;;;;;;;13.32;2.10;;;;;;;-2.00;100.00;101337.66;5015465;28;20098;-80
2024/01/19 05:38:47;;;;;;;11.82;2.30;;;;;;;-2.02;100.00;101335.78;4976445;28;20917;-80
2024/01/19 05:41:19;;;;;;;13.25;1.90;;;;;;;-2.06;100.00;101346.69;5000820;28;20491;-80
2024/01/19 05:43:47;;;;;;;10.95;2.20;;;;;;;-2.09;100.00;101347.41;4984209;28;20056;-80
2024/01/19 05:46:15;;;;;;;8.13;2.47;;;;;;;-2.13;100.00;101355.78;5006435;28;20580;-78
2024/01/19 05:48:42;;;;;;;8.80;2.38;;;;;;;-2.16;100.00;101360.72;4981135;28;20049;-78
2024/01/19 05:51:16;;;;;;;13.38;2.20;;;;;;;-2.19;100.00;101361.44;4998134;28;20050;-78
2024/01/19 05:53:44;;;;;;;14.13;2.58;;;;;;;-2.23;100.00;101367.22;4984657;28;20054;-78
2024/01/19 05:56:11;;;;;;;9.88;2.95;;;;;;;-2.24;100.00;101369.69;4964477;28;20048;-78
2024/01/19 05:58:38;;;;;;;16.48;2.40;;;;;;;-2.25;100.00;101373.06;5007050;28;20491;-78
2024/01/19 06:01:06;;;;;;;10.52;2.45;;;;;;;-2.24;100.00;101383.50;4982855;28;20057;-79
2024/01/19 06:03:35;;;;;;;9.38;2.00;;;;;;;-2.22;100.00;101383.59;4996516;28;20777;-78
2024/01/19 06:06:03;;;;;;;15.43;2.22;;;;;;;-2.22;100.00;101381.00;5008398;28;20080;-77
2024/01/19 06:08:32;;;;;;;14.73;2.10;;;;;;;-2.21;100.00;101386.28;5002919;28;20759;-78
2024/01/19 06:11:00;;;;;;;9.63;2.33;;;;;;;-2.22;100.00;101386.16;4977090;28;20064;-78
2024/01/19 06:13:27;;;;;;;11.93;2.72;;;;;;;-2.25;100.00;101388.53;5022543;28;20956;-78
2024/01/19 06:15:55;;;;;;;11.82;1.73;;;;;;;-2.29;100.00;101397.78;5000450;28;20085;-78
2024/01/19 06:18:22;;;;;;;11.45;2.28;;;;;;;-2.31;100.00;101412.28;5027923;28;20045;-78
2024/01/19 06:20:51;;;;;;;10.65;2.10;;;;;;;-2.33;100.00;101413.00;5000491;28;20060;-78
2024/01/19 06:23:20;;;;;;;12.60;2.13;;;;;;;-2.36;100.00;101414.59;4986109;28;20049;-79
2024/01/19 06:25:47;;;;;;;11.60;1.95;;;;;;;-2.36;100.00;101418.88;4950851;28;20061;-78
2024/01/19 06:28:15;;;;;;;8.32;1.90;;;;;;;-2.36;100.00;101426.59;4996971;28;20068;-78
2024/01/19 06:30:44;;;;;;;8.73;1.92;;;;;;;-2.37;100.00;101435.13;5000703;28;20234;-79
2024/01/19 06:33:11;;;;;;;14.80;2.17;;;;;;;-2.36;100.00;101437.81;4996928;28;20042;-78
2024/01/19 06:35:39;;;;;;;7.97;1.73;;;;;;;-2.36;100.00;101450.72;4997049;28;20057;-78
2024/01/19 06:38:06;;;;;;;7.25;1.60;;;;;;;-2.35;100.00;101449.91;5001734;28;20069;-78
2024/01/19 06:40:34;;;;;;;9.60;2.17;;;;;;;-2.33;100.00;101460.34;4997118;28;20050;-78
2024/01/19 06:43:01;;;;;;;7.28;1.83;;;;;;;-2.34;100.00;101458.56;4977818;28;20105;-78
2024/01/19 06:45:31;;;;;;;9.13;1.63;;;;;;;-2.33;100.00;101468.09;5005782;28;20056;-78
2024/01/19 06:47:58;;;;;;;10.73;1.70;;;;;;;-2.35;100.00;101455.06;5001619;28;20060;-78
2024/01/19 06:50:25;;;;;;;9.23;1.60;;;;;;;-2.35;100.00;101467.97;5013745;28;20042;-79
2024/01/19 06:52:53;;;;;;;8.70;2.17;;;;;;;-2.37;100.00;101464.41;5031095;28;20041;-78
2024/01/19 06:55:24;;;;;;;4.03;1.55;;;;;;;-2.37;100.00;101468.69;4992258;28;20057;-78
2024/01/19 06:57:52;;;;;;;14.50;2.17;;;;;;;-2.38;100.00;101462.63;4996684;28;20407;-78
2024/01/19 07:00:20;;;;;;;7.45;1.50;;;;;;;-2.38;100.00;101474.66;5010408;28;20048;-78
2024/01/19 07:02:47;;;;;;;9.50;2.15;;;;;;;-2.39;100.00;101476.31;4995171;28;20060;-78
2024/01/19 07:05:16;;;;;;;15.30;2.22;;;;;;;-2.39;100.00;101478.91;4996361;28;20128;-79
2024/01/19 07:07:43;;;;;;;10.10;2.40;;;;;;;-2.40;100.00;101482.31;5007592;28;20053;-78
2024/01/19 07:10:11;;;;;;;13.13;2.67;;;;;;;-2.39;100.00;101490.94;5009026;28;20053;-79
2024/01/19 07:12:38;;;;;;;8.98;2.22;;;;;;;-2.41;100.00;101493.41;4991238;28;20164;-79
2024/01/19 07:15:07;;;;;;;13.80;2.83;;;;;;;-2.42;100.00;101501.97;5011246;28;20049;-78
2024/01/19 07:17:34;;;;;;;9.43;2.10;;;;;;;-2.43;100.00;101499.28;5028139;28;20045;-78
2024/01/19 07:20:05;;;;;;;5.10;2.03;;;;;;;-2.47;100.00;101503.34;4986021;28;20512;-78
2024/01/19 07:22:33;;;;;;;7.97;1.88;;;;;;;-2.51;100.00;101511.66;4994934;28;20549;-78
2024/01/19 07:25:01;;;;;;;3.78;1.92;;;;;;;-2.54;100.00;101511.47;5011518;28;20049;-78
2024/01/19 07:27:28;;;;;;;10.43;4.65;;;;;;;-2.57;100.00;101511.25;5001969;28;20054;-78
2024/01/19 07:29:56;;;;;;;6.80;1.92;;;;;;;-2.56;100.00;101523.38;4980235;28;20426;-80
2024/01/19 07:32:25;;;;;;;11.55;2.35;;;;;;;-2.55;100.00;101525.16;5010163;28;20461;-78
2024/01/19 07:34:52;;;;;;;10.68;2.40;;;;;;;-2.54;100.00;101521.78;5001942;28;20510;-78
2024/01/19 07:37:20;;;;;;;13.50;2.60;;;;;;;-2.52;100.00;101525.34;4990146;28;20049;-77
2024/01/19 07:39:47;;;;;;;12.98;2.20;;;;;;;-2.50;100.00;101535.78;4992240;28;20755;-79
2024/01/19 07:42:15;;;;;;;12.50;2.30;;;;;;;-2.50;100.00;101523.75;5003147;28;20053;-78
2024/01/19 07:44:42;;;;;;;15.80;2.80;;;;;;;-2.48;100.00;101534.19;4974607;28;20418;-79
2024/01/19 07:47:10;;;;;;;9.63;2.63;;;;;;;-2.47;100.00;101536.00;5002857;28;20434;-78
2024/01/19 07:49:37;;;;;;;6.85;2.53;;;;;;;-2.47;100.00;101542.03;5024661;28;20045;-79
2024/01/19 07:52:05;;;;;;;10.73;2.47;;;;;;;-2.45;100.00;101555.94;4981917;28;20060;-78
2024/01/19 07:54:32;;;;;;;14.38;2.72;;;;;;;-2.44;100.00;101551.66;4982373;28;20076;-78
2024/01/19 07:57:00;;;;;;;6.10;2.50;;;;;;;-2.43;100.00;101562.09;5010006;28;20049;-78
2024/01/19 07:59:27;;;;;;;9.15;3.03;;;;;;;-2.41;100.00;101560.50;4994308;28;20045;-78
2024/01/19 08:01:55;;;;;;;6.40;2.60;;;;;;;-2.44;100.00;101560.34;4963112;28;20037;-78
2024/01/19 08:04:22;;;;;;;9.00;2.40;;;;;;;-2.45;100.00;101558.53;4999634;28;20041;-78
2024/01/19 08:06:50;;;;;;;5.90;2.33;;;;;;;-2.45;100.00;101561.09;5000744;28;20061;-78
2024/01/19 08:09:17;;;;;;;9.07;2.75;;;;;;;-2.44;100.00;101557.75;5003853;28;20057;-78
2024/01/19 08:11:45;;;;;;;8.57;2.38;;;;;;;-2.42;100.00;101563.00;5019591;28;20056;-78
2024/01/19 08:14:13;;;;;;;10.68;2.60;;;;;;;-2.39;100.00;101566.69;5006212;28;20048;-77
2024/01/19 08:16:43;;;;;;;5.88;2.33;;;;;;;-2.32;100.00;101574.84;4989184;28;20046;-78
2024/01/19 08:19:11;;;;;;;8.55;2.25;;;;;;;-2.24;100.00;101565.91;5009735;28;20053;-78
2024/01/19 08:21:42;;;;;;;7.43;2.33;;;;;;;-2.18;100.00;101569.78;5002811;28;20045;-78
2024/01/19 08:24:12;;;;;;;7.65;2.22;;;;;;;-2.11;100.00;101565.94;4998882;28;20053;-78
2024/01/19 08:26:39;;;;;;;11.45;2.63;;;;;;;-2.05;100.00;101566.31;5007864;28;20050;-78
2024/01/19 08:29:07;;;;;;;11.70;2.10;;;;;;;-1.97;100.00;101570.31;4989946;28;20491;-78
2024/01/19 08:31:34;;;;;;;7.47;2.20;;;;;;;-1.87;100.00;101582.16;4950988;28;20060;-78
2024/01/19 08:34:02;;;;;;;10.30;2.17;;;;;;;-1.78;100.00;101577.59;5020682;28;20053;-78
2024/01/19 08:36:29;;;;;;;12.55;2.35;;;;;;;-1.73;100.00;101583.03;5024860;28;20033;-78
2024/01/19 08:38:57;;;;;;;17.50;2.47;;;;;;;-1.69;100.00;101584.13;4990254;28;20046;-78
2024/01/19 08:41:24;;;;;;;6.55;2.10;;;;;;;-1.68;100.00;101584.22;5000723;28;20041;-80
2024/01/19 08:43:52;;;;;;;4.82;2.00;;;;;;;-1.69;100.00;101582.44;4996887;28;20045;-79
2024/01/19 08:46:19;;;;;;;7.60;2.33;;;;;;;-1.70;100.00;101580.66;4988224;28;20057;-79
2024/01/19 08:48:47;;;;;;;13.63;2.10;;;;;;;-1.72;100.00;101583.91;5007728;28;20045;-79
2024/01/19 08:51:20;;;;;;;10.73;2.03;;;;;;;-1.72;100.00;101577.09;5001221;28;20054;-78
2024/01/19 08:53:48;;;;;;;15.45;2.55;;;;;;;-1.69;100.00;101587.59;5000621;28;20584;-78
2024/01/19 08:56:20;;;;;;;156.85;12.98;;;;;;;-1.65;100.00;101589.56;5004380;28;20072;-78
2024/01/19 08:58:48;;;;;;;489.05;38.88;;;;;;;-1.57;100.00;101592.66;5020424;28;20060;-78
2024/01/19 09:01:19;;;;;;;45.40;6.70;;;;;;;-1.51;100.00;101592.16;5005833;28;20399;-79
2024/01/19 09:03:46;;;;;;;107.88;11.32;;;;;;;-1.47;100.00;101601.91;4990641;28;20057;-79
2024/01/19 09:06:14;;;;;;;88.55;7.78;;;;;;;-1.42;100.00;101609.16;4998837;28;20414;-78
2024/01/19 09:08:43;;;;;;;12.10;2.67;;;;;;;-1.38;100.00;101611.16;4996156;28;20517;-78
2024/01/19 09:11:11;;;;;;;61.80;6.43;;;;;;;-1.34;100.00;101608.72;4997853;28;20037;-79
2024/01/19 09:13:40;;;;;;;12.02;3.28;;;;;;;-1.28;100.00;101611.72;4993794;28;20041;-79
2024/01/19 09:16:08;;;;;;;47.70;7.55;;;;;;;-1.23;100.00;101607.72;5020422;28;20064;-78
2024/01/19 09:18:41;;;;;;;10.52;2.53;;;;;;;-1.19;100.00;101609.72;4959643;28;20042;-78
2024/01/19 09:21:15;;;;;;;41.20;7.60;;;;;;;-1.11;100.00;101610.22;5020094;28;20021;-79
2024/01/19 09:23:43;;;;;;;12.73;3.88;;;;;;;-1.07;100.00;101618.25;5022453;28;20049;-79
2024/01/19 09:26:21;;;;;;;7.45;2.45;;;;;;;-1.03;100.00;101614.16;4999458;28;20045;-79
2024/01/19 09:28:48;;;;;;;9.10;2.65;;;;;;;-1.02;100.00;101623.69;4995245;28;20062;-79
2024/01/19 09:31:17;;;;;;;12.50;4.15;;;;;;;-0.98;100.00;101628.28;4988443;28;20050;-79
2024/01/19 09:33:45;;;;;;;8.63;2.40;;;;;;;-0.94;100.00;101629.38;4954272;28;20053;-81
2024/01/19 09:36:13;;;;;;;14.57;2.38;;;;;;;-0.87;100.00;101631.50;5018973;28;20431;-78
2024/01/19 09:38:40;;;;;;;8.95;2.60;;;;;;;-0.84;100.00;101627.41;4998280;28;20041;-78
2024/01/19 09:41:32;;;;;;;11.48;1.80;;;;;;;-0.75;100.00;101640.03;5015282;28;20125;-79
2024/01/19 09:44:05;;;;;;;11.52;2.22;;;;;;;-0.66;100.00;101644.88;5002181;28;20054;-78
2024/01/19 09:46:47;;;;;;;10.60;2.08;;;;;;;-0.60;100.00;101637.50;4985127;28;20053;-78
2024/01/19 09:49:40;;;;;;;9.40;1.88;;;;;;;-0.54;100.00;101644.75;4979333;28;20053;-78
2024/01/19 09:52:11;;;;;;;12.50;2.25;;;;;;;-0.50;100.00;101645.03;4986802;28;20048;-78
2024/01/19 09:54:40;;;;;;;11.63;2.15;;;;;;;-0.43;100.00;101652.38;4977986;28;20078;-79
2024/01/19 09:57:08;;;;;;;12.73;2.35;;;;;;;-0.38;100.00;101649.16;4993724;28;20056;-78
2024/01/19 09:59:35;;;;;;;11.30;2.28;;;;;;;-0.32;100.00;101644.34;4999846;28;20053;-78
2024/01/19 10:02:06;;;;;;;9.23;2.78;;;;;;;-0.25;100.00;101659.44;5019978;28;20049;-78
2024/01/19 10:04:34;;;;;;;8.02;2.13;;;;;;;-0.23;100.00;101661.34;5000978;28;20045;-79
2024/01/19 10:07:03;;;;;;;10.82;2.15;;;;;;;-0.17;100.00;101665.09;4986326;28;20054;-79
2024/01/19 10:09:31;;;;;;;5.72;1.77;;;;;;;-0.10;100.00;101664.66;4992815;28;20061;-79
2024/01/19 10:11:59;;;;;;;11.95;2.00;;;;;;;-0.07;100.00;101670.91;4970497;28;20399;-79
2024/01/19 10:14:26;;;;;;;8.05;2.70;;;;;;;-0.02;100.00;101668.56;4944295;28;20672;-80
2024/01/19 10:16:54;;;;;;;7.88;2.10;;;;;;;0.06;100.00;101669.94;4975357;28;20069;-79
2024/01/19 10:19:22;;;;;;;12.90;2.92;;;;;;;0.11;100.00;101668.50;5006404;28;20042;-79
2024/01/19 10:21:50;;;;;;;11.32;2.25;;;;;;;0.18;100.00;101670.66;4962239;28;20053;-79
2024/01/19 10:24:19;;;;;;;7.97;1.75;;;;;;;0.24;100.00;101682.19;4994456;28;20071;-79
2024/01/19 10:26:55;;;;;;;13.05;3.25;;;;;;;0.29;100.00;101676.47;4976892;28;20029;-79
2024/01/19 10:29:23;;;;;;;11.93;2.10;;;;;;;0.33;100.00;101672.34;4989596;28;20042;-79
2024/01/19 10:31:54;;;;;;;6.88;1.73;;;;;;;0.42;100.00;101677.16;4995182;28;20061;-79
2024/01/19 10:34:24;;;;;;;13.70;3.47;;;;;;;0.47;100.00;101678.31;4970316;28;20072;-79
2024/01/19 10:36:51;;;;;;;14.35;2.42;;;;;;;0.51;100.00;101681.19;4957205;28;20525;-79
2024/01/19 10:39:24;;;;;;;9.13;2.25;;;;;;;0.51;100.00;101680.28;4975955;28;20049;-79
2024/01/19 10:42:03;;;;;;;6.97;2.08;;;;;;;0.52;100.00;101688.16;5000381;28;20046;-79
2024/01/19 10:44:32;;;;;;;4.80;1.63;;;;;;;0.57;100.00;101689.31;4984684;28;20903;-79
2024/01/19 10:47:00;;;;;;;10.10;3.35;;;;;;;0.62;100.00;101694.75;5006325;28;20070;-79
2024/01/19 10:49:27;;;;;;;9.75;2.40;;;;;;;0.68;100.00;101696.81;4980386;28;20046;-79
2024/01/19 10:51:56;;;;;;;8.63;2.33;;;;;;;0.76;100.00;101696.44;4941851;28;20076;-80
2024/01/19 10:54:24;;;;;;;9.45;3.20;;;;;;;0.87;100.00;101703.94;4989043;28;20061;-79
2024/01/19 10:57:06;;;;;;;11.88;2.53;;;;;;;1.00;100.00;101709.00;4996590;28;20517;-80
2024/01/19 10:59:34;;;;;;;7.57;2.83;;;;;;;1.12;100.00;101714.00;5000139;28;20050;-79
2024/01/19 11:02:03;;;;;;;9.77;3.15;;;;;;;1.24;100.00;101708.59;4974156;28;20053;-79
2024/01/19 11:04:34;;;;;;;12.18;4.15;;;;;;;1.36;100.00;101712.75;4977106;28;20052;-79
2024/01/19 11:07:06;;;;;;;8.63;2.53;;;;;;;1.42;100.00;101709.59;4978877;28;20049;-79
2024/01/19 11:09:34;;;;;;;10.43;2.60;;;;;;;1.52;100.00;101711.84;4993385;28;20513;-79
2024/01/19 11:12:04;;;;;;;7.85;2.03;;;;;;;1.60;100.00;101717.47;5021694;28;20042;-79
2024/01/19 11:14:33;;;;;;;9.80;2.40;;;;;;;1.68;100.00;101723.06;4998136;28;20045;-79
2024/01/19 11:17:00;;;;;;;10.05;2.20;;;;;;;1.72;100.00;101714.63;5000398;28;20049;-79
2024/01/19 11:19:30;;;;;;;10.02;2.28;;;;;;;1.76;100.00;101711.38;5012248;28;20041;-79